createdAt,value
2018-07-09T00:00:14.292Z,56.45
2018-07-09T00:02:43.609Z,56.52
2018-07-09T00:05:12.924Z,56.01
2018-07-09T00:07:42.236Z,55.30
2018-07-09T00:10:12.846Z,55.10
2018-07-09T00:12:42.282Z,54.96
2018-07-09T00:15:11.590Z,56.48
2018-07-09T00:17:40.904Z,56.35
2018-07-09T00:20:10.229Z,55.99
2018-07-09T00:22:39.512Z,55.26
2018-07-09T00:25:08.867Z,54.21
2018-07-09T00:27:38.186Z,55.51
2018-07-09T00:30:07.530Z,55.67
2018-07-09T00:32:36.857Z,56.09
2018-07-09T00:35:06.205Z,57.65
2018-07-09T00:37:35.789Z,57.86
2018-07-09T00:40:05.636Z,57.67
2018-07-09T00:42:35.486Z,58.29
2018-07-09T00:45:04.843Z,58.12
2018-07-09T00:47:34.289Z,56.40
2018-07-09T00:50:03.606Z,57.00
2018-07-09T00:52:32.924Z,56.74
2018-07-09T00:55:02.468Z,57.57
2018-07-09T00:57:31.904Z,56.46
2018-07-09T01:00:01.290Z,57.98
2018-07-09T01:02:30.705Z,59.02
2018-07-09T01:05:00.086Z,59.64
2018-07-09T01:07:29.414Z,61.46
2018-07-09T01:09:58.798Z,60.77
2018-07-09T01:12:28.201Z,59.76
2018-07-09T01:14:57.555Z,60.32
2018-07-09T01:17:26.903Z,59.55
2018-07-09T01:19:56.394Z,59.85
2018-07-09T01:22:25.736Z,59.69
2018-07-09T01:24:55.028Z,59.60
2018-07-09T01:27:24.387Z,59.92
2018-07-09T01:29:53.656Z,60.53
2018-07-09T01:32:22.932Z,61.99
2018-07-09T01:34:52.239Z,61.02
2018-07-09T01:37:21.525Z,60.47
2018-07-09T01:39:50.868Z,60.18
2018-07-09T01:42:20.144Z,59.78
2018-07-09T01:44:49.457Z,61.30
2018-07-09T01:47:18.706Z,60.36
2018-07-09T01:49:48.010Z,60.68
2018-07-09T01:52:17.345Z,60.09
2018-07-09T01:54:46.654Z,59.44
2018-07-09T01:57:15.926Z,58.24
2018-07-09T01:59:45.292Z,59.02
2018-07-09T02:02:14.565Z,60.30
2018-07-09T02:04:43.862Z,61.03
2018-07-09T02:07:13.146Z,61.03
2018-07-09T02:09:42.482Z,62.57
2018-07-09T02:12:11.767Z,62.33
2018-07-09T02:14:41.090Z,62.35
2018-07-09T02:17:10.361Z,62.40
2018-07-09T02:19:39.630Z,62.32
2018-07-09T02:22:08.996Z,62.53
2018-07-09T02:24:38.251Z,61.71
2018-07-09T02:27:07.648Z,62.00
2018-07-09T02:29:36.925Z,62.19
2018-07-09T02:32:06.315Z,62.37
2018-07-09T02:34:35.658Z,61.52
2018-07-09T02:37:05.026Z,62.58
2018-07-09T02:39:34.392Z,62.88
2018-07-09T02:42:03.697Z,62.37
2018-07-09T02:44:32.989Z,62.50
2018-07-09T02:47:02.269Z,62.35
2018-07-09T02:49:31.661Z,62.84
2018-07-09T02:52:01.009Z,62.32
2018-07-09T02:54:30.327Z,62.08
2018-07-09T02:56:59.658Z,62.06
2018-07-09T02:59:28.961Z,61.29
2018-07-09T03:01:58.292Z,61.67
2018-07-09T03:04:27.638Z,62.47
2018-07-09T03:06:57.145Z,62.29
2018-07-09T03:09:26.444Z,62.95
2018-07-09T03:11:55.800Z,62.04
2018-07-09T03:14:25.124Z,63.15
2018-07-09T03:16:54.412Z,65.58
2018-07-09T03:19:23.770Z,64.58
2018-07-09T03:21:53.096Z,63.50
2018-07-09T03:24:22.419Z,62.32
2018-07-09T03:26:51.706Z,62.17
2018-07-09T03:29:21.026Z,62.89
2018-07-09T03:31:50.388Z,61.37
2018-07-09T03:34:19.718Z,60.78
2018-07-09T03:36:49.054Z,60.96
2018-07-09T03:39:18.375Z,61.53
2018-07-09T03:41:47.702Z,63.81
2018-07-09T03:44:17.074Z,61.56
2018-07-09T03:46:46.385Z,62.94
2018-07-09T03:49:15.733Z,63.02
2018-07-09T03:51:45.051Z,61.81
2018-07-09T03:54:14.363Z,60.48
2018-07-09T03:56:43.684Z,60.69
2018-07-09T03:59:12.975Z,61.28
2018-07-09T04:01:42.316Z,59.89
2018-07-09T04:04:11.647Z,61.66
2018-07-09T04:06:40.957Z,61.43
2018-07-09T04:09:10.258Z,62.45
2018-07-09T04:11:39.578Z,63.22
2018-07-09T04:14:08.979Z,62.93
2018-07-09T04:16:38.312Z,62.89
2018-07-09T04:19:07.625Z,63.21
2018-07-09T04:21:37.004Z,63.31
2018-07-09T04:24:06.391Z,63.99
2018-07-09T04:26:35.726Z,65.57
2018-07-09T04:29:05.018Z,65.29
2018-07-09T04:31:34.310Z,65.33
2018-07-09T04:34:03.690Z,65.38
2018-07-09T04:36:33.060Z,65.39
2018-07-09T04:39:02.554Z,64.79
2018-07-09T04:41:31.836Z,63.86
2018-07-09T04:44:01.123Z,63.17
2018-07-09T04:46:30.453Z,62.67
2018-07-09T04:49:00.034Z,61.89
2018-07-09T04:51:29.499Z,63.25
2018-07-09T04:53:58.909Z,61.27
2018-07-09T04:56:28.463Z,65.12
2018-07-09T04:58:57.794Z,65.28
2018-07-09T05:01:27.108Z,62.70
2018-07-09T05:03:56.441Z,64.08
2018-07-09T05:06:25.723Z,62.08
2018-07-09T05:08:54.994Z,62.68
2018-07-09T05:11:24.364Z,63.33
2018-07-09T05:13:53.684Z,63.19
2018-07-09T05:16:23.097Z,64.45
2018-07-09T05:18:52.416Z,65.26
2018-07-09T05:21:21.778Z,66.64
2018-07-09T05:23:51.098Z,63.62
2018-07-09T05:26:20.458Z,65.10
2018-07-09T05:28:49.844Z,63.87
2018-07-09T05:31:19.190Z,64.17
2018-07-09T05:33:48.591Z,63.30
2018-07-09T05:36:17.893Z,62.33
2018-07-09T05:38:47.282Z,62.60
2018-07-09T05:41:16.650Z,61.41
2018-07-09T05:43:45.995Z,60.40
2018-07-09T05:46:15.296Z,60.75
2018-07-09T05:48:44.653Z,60.54
2018-07-09T05:51:14.042Z,58.86
2018-07-09T05:53:43.397Z,54.26
2018-07-09T05:56:12.743Z,52.22
2018-07-09T05:58:42.108Z,51.34
2018-07-09T06:01:11.588Z,48.96
2018-07-09T06:03:40.956Z,49.10
2018-07-09T06:06:10.282Z,48.23
2018-07-09T06:08:39.738Z,45.98
2018-07-09T06:11:09.065Z,45.00
2018-07-09T06:13:38.486Z,43.71
2018-07-09T06:16:07.744Z,43.20
2018-07-09T06:18:37.138Z,42.82
2018-07-09T06:21:06.620Z,40.60
2018-07-09T06:23:35.948Z,40.84
2018-07-09T06:26:05.363Z,39.03
2018-07-09T06:28:34.811Z,38.22
2018-07-09T06:31:04.141Z,38.32
2018-07-09T06:33:33.578Z,37.00
2018-07-09T06:36:02.901Z,33.38
2018-07-09T06:38:33.019Z,36.68
2018-07-09T06:41:02.372Z,37.02
2018-07-09T06:43:31.721Z,35.51
2018-07-09T06:46:01.106Z,34.08
2018-07-09T06:48:30.407Z,33.30
2018-07-09T06:50:59.751Z,33.41
2018-07-09T06:53:29.076Z,34.16
2018-07-09T06:55:58.483Z,34.05
2018-07-09T06:58:27.887Z,34.33
2018-07-09T07:00:57.193Z,33.46
2018-07-09T07:03:27.530Z,32.91
2018-07-09T07:05:56.852Z,33.29
2018-07-09T07:08:26.230Z,32.88
2018-07-09T07:10:55.758Z,33.68
2018-07-09T07:13:26.029Z,32.45
2018-07-09T07:15:55.364Z,33.19
2018-07-09T07:18:24.783Z,32.52
2018-07-09T07:20:54.076Z,32.46
2018-07-09T07:23:23.416Z,33.41
2018-07-09T07:25:52.751Z,31.85
2018-07-09T07:28:22.144Z,31.97
2018-07-09T07:30:51.437Z,32.40
2018-07-09T07:33:20.757Z,29.72
2018-07-09T07:35:50.024Z,30.92
2018-07-09T07:40:57.553Z,30.82
2018-07-09T07:43:26.981Z,29.55
2018-07-09T07:45:56.364Z,29.73
2018-07-09T07:48:25.776Z,29.57
2018-07-09T07:50:55.128Z,31.40
2018-07-09T07:53:24.451Z,29.73
2018-07-09T07:55:53.801Z,29.94
2018-07-09T07:58:23.216Z,27.11
2018-07-09T08:00:52.624Z,29.54
2018-07-09T08:03:22.009Z,30.60
2018-07-09T08:05:51.747Z,28.80
2018-07-09T08:08:21.069Z,29.11
2018-07-09T08:10:50.429Z,27.96
2018-07-09T08:13:28.997Z,28.19
2018-07-09T08:15:49.151Z,29.68
2018-07-09T08:18:18.543Z,28.68
2018-07-09T08:20:47.844Z,28.14
2018-07-09T08:23:17.191Z,26.42
2018-07-09T08:25:46.630Z,28.03
2018-07-09T08:28:15.964Z,26.55
2018-07-09T08:30:45.389Z,25.74
2018-07-09T08:33:14.710Z,25.94
2018-07-09T08:35:44.120Z,24.98
2018-07-09T08:38:13.484Z,24.73
2018-07-09T08:40:42.888Z,23.59
2018-07-09T08:43:12.244Z,24.08
2018-07-09T08:45:41.754Z,25.19
2018-07-09T08:48:11.168Z,25.77
2018-07-09T08:50:40.476Z,26.42
2018-07-09T08:53:09.810Z,25.04
2018-07-09T08:55:39.178Z,25.80
2018-07-09T08:58:08.563Z,24.76
2018-07-09T09:00:37.955Z,23.61
2018-07-09T09:03:07.404Z,23.68
2018-07-09T09:05:36.798Z,21.49
2018-07-09T09:08:06.175Z,24.08
2018-07-09T09:10:35.498Z,24.00
2018-07-09T09:13:04.881Z,24.29
2018-07-09T09:15:34.292Z,23.75
2018-07-09T09:18:03.644Z,26.49
2018-07-09T09:20:32.970Z,26.32
2018-07-09T09:23:02.288Z,25.24
2018-07-09T09:25:31.748Z,25.20
2018-07-09T09:28:01.042Z,26.21
2018-07-09T09:30:30.415Z,23.96
2018-07-09T09:32:59.907Z,24.55
2018-07-09T09:35:29.269Z,22.50
2018-07-09T09:37:58.682Z,22.64
2018-07-09T09:40:28.023Z,22.96
2018-07-09T09:42:57.369Z,25.09
2018-07-09T09:45:26.730Z,25.62
2018-07-09T09:47:56.108Z,27.96
2018-07-09T09:50:25.435Z,26.72
2018-07-09T09:52:54.746Z,25.97
2018-07-09T09:55:24.037Z,26.87
2018-07-09T09:57:53.321Z,27.39
2018-07-09T10:00:26.819Z,25.31
2018-07-09T10:02:56.114Z,25.17
2018-07-09T10:05:25.487Z,25.61
2018-07-09T10:07:54.770Z,24.79
2018-07-09T10:10:24.079Z,26.01
2018-07-09T10:12:53.436Z,23.83
2018-07-09T10:15:22.763Z,25.97
2018-07-09T10:17:52.079Z,24.11
2018-07-09T10:20:21.450Z,23.98
2018-07-09T10:22:50.878Z,25.01
2018-07-09T10:25:20.204Z,25.76
2018-07-09T10:27:49.591Z,26.43
2018-07-09T10:30:19.045Z,27.12
2018-07-09T10:32:48.399Z,27.28
2018-07-09T10:35:17.737Z,26.72
2018-07-09T10:37:48.060Z,27.29
2018-07-09T10:40:17.387Z,27.18
2018-07-09T10:42:46.769Z,30.00
2018-07-09T10:45:16.152Z,29.25
2018-07-09T10:47:45.544Z,32.60
2018-07-09T10:50:14.896Z,33.34
2018-07-09T10:52:44.262Z,31.86
2018-07-09T10:55:13.755Z,32.41
2018-07-09T10:57:43.186Z,31.30
2018-07-09T11:00:12.546Z,30.89
2018-07-09T11:02:41.877Z,28.19
2018-07-09T11:05:11.262Z,27.28
2018-07-09T11:07:40.651Z,29.11
2018-07-09T11:10:09.983Z,31.25
2018-07-09T11:12:40.416Z,32.85
2018-07-09T11:15:09.746Z,33.33
2018-07-09T11:17:39.104Z,34.11
2018-07-09T11:20:08.449Z,34.88
2018-07-09T11:22:37.779Z,34.44
2018-07-09T11:25:07.237Z,34.44
2018-07-09T11:27:36.654Z,34.26
2018-07-09T11:30:06.090Z,32.54
2018-07-09T11:32:35.497Z,31.31
2018-07-09T11:35:04.870Z,32.93
2018-07-09T11:37:34.248Z,34.43
2018-07-09T11:40:03.620Z,35.93
2018-07-09T11:42:33.037Z,35.02
2018-07-09T11:45:02.394Z,35.86
2018-07-09T11:47:31.733Z,34.75
2018-07-09T11:50:01.093Z,34.39
2018-07-09T11:55:10.308Z,35.71
2018-07-09T11:57:39.757Z,35.59
2018-07-09T12:00:09.552Z,35.16
2018-07-09T12:02:39.034Z,34.67
2018-07-09T12:05:08.843Z,34.30
2018-07-09T12:07:38.260Z,34.85
2018-07-09T12:10:07.776Z,33.82
2018-07-09T12:12:37.322Z,35.68
2018-07-09T12:15:06.746Z,36.12
2018-07-09T12:17:36.259Z,34.65
2018-07-09T12:20:05.720Z,36.35
2018-07-09T12:22:35.114Z,36.33
2018-07-09T12:25:04.937Z,34.65
2018-07-09T12:27:34.347Z,36.85
2018-07-09T12:30:03.806Z,36.31
2018-07-09T12:32:33.109Z,37.39
2018-07-09T12:35:03.898Z,36.11
2018-07-09T12:37:33.551Z,35.16
2018-07-09T12:40:03.044Z,37.31
2018-07-09T12:42:32.407Z,37.45
2018-07-09T12:45:02.125Z,36.99
2018-07-09T12:47:31.501Z,37.45
2018-07-09T12:50:00.998Z,36.41
2018-07-09T12:52:30.460Z,37.17
2018-07-09T12:54:59.973Z,37.93
2018-07-09T12:57:29.404Z,37.22
2018-07-09T12:59:58.808Z,38.31
2018-07-09T13:02:28.252Z,39.88
2018-07-09T13:04:57.816Z,37.54
2018-07-09T13:07:27.196Z,40.93
2018-07-09T13:09:56.600Z,41.17
2018-07-09T13:12:28.201Z,40.94
2018-07-09T13:14:59.500Z,42.27
2018-07-09T13:17:28.983Z,42.69
2018-07-09T13:19:58.437Z,43.46
2018-07-09T13:22:27.909Z,42.83
2018-07-09T13:24:57.432Z,41.94
2018-07-09T13:27:26.818Z,41.72
2018-07-09T13:29:56.371Z,41.92
2018-07-09T13:32:26.199Z,42.21
2018-07-09T13:34:56.210Z,41.59
2018-07-09T13:37:25.774Z,43.49
2018-07-09T13:39:55.379Z,43.13
2018-07-09T13:42:24.948Z,42.68
2018-07-09T13:44:54.431Z,44.70
2018-07-09T13:47:24.059Z,43.50
2018-07-09T13:49:53.818Z,45.58
2018-07-09T13:52:23.298Z,44.37
2018-07-09T13:54:52.810Z,45.27
2018-07-09T13:57:22.344Z,47.30
2018-07-09T13:59:51.813Z,45.77
2018-07-09T14:02:21.351Z,45.50
2018-07-09T14:04:51.194Z,45.00
2018-07-09T14:07:20.760Z,46.15
2018-07-09T14:09:50.169Z,46.22
2018-07-09T14:12:19.527Z,45.16
2018-07-09T14:14:48.967Z,44.89
2018-07-09T14:17:18.444Z,43.46
2018-07-09T14:20:25.200Z,43.82
2018-07-09T14:22:54.624Z,42.27
2018-07-09T14:25:24.288Z,42.56
2018-07-09T14:27:54.027Z,43.52
2018-07-09T14:30:23.685Z,42.05
2018-07-09T14:32:53.028Z,43.93
2018-07-09T14:35:22.591Z,42.23
2018-07-09T14:37:52.428Z,42.92
2018-07-09T14:40:21.830Z,43.88
2018-07-09T14:42:52.461Z,42.95
2018-07-09T14:45:21.958Z,43.17
2018-07-09T14:47:51.432Z,41.98
2018-07-09T14:50:20.820Z,41.70
2018-07-09T14:52:50.244Z,42.86
2018-07-09T14:55:20.750Z,42.38
2018-07-09T14:57:50.569Z,42.89
2018-07-09T15:00:20.031Z,40.27
2018-07-09T15:02:49.622Z,40.68
2018-07-09T15:05:20.080Z,40.32
2018-07-09T15:07:49.713Z,39.07
2018-07-09T15:10:31.309Z,39.42
2018-07-09T15:13:04.205Z,40.31
2018-07-09T15:15:39.913Z,40.88
2018-07-09T15:18:16.142Z,41.59
2018-07-09T15:20:49.026Z,43.77
2018-07-09T15:23:24.302Z,40.76
2018-07-09T15:25:56.862Z,40.42
2018-07-09T15:28:31.459Z,40.92
2018-07-09T15:31:05.060Z,40.74
2018-07-09T15:33:48.283Z,41.35
2018-07-09T15:36:22.619Z,40.13
2018-07-09T15:38:54.390Z,41.21
2018-07-09T15:44:06.717Z,42.06
2018-07-09T15:46:44.298Z,41.40
2018-07-09T15:49:17.091Z,41.38
2018-07-09T15:51:46.538Z,41.73
2018-07-09T15:54:15.885Z,39.69
2018-07-09T15:56:45.325Z,39.88
2018-07-09T15:59:14.730Z,40.36
2018-07-09T16:01:44.086Z,40.19
2018-07-09T16:04:13.535Z,41.12
2018-07-09T16:06:42.864Z,40.88
2018-07-09T16:09:12.185Z,41.03
2018-07-09T16:11:41.653Z,40.29
2018-07-09T16:14:11.030Z,40.94
2018-07-09T16:16:40.468Z,41.60
2018-07-09T16:19:09.834Z,41.27
2018-07-09T16:21:39.221Z,41.13
2018-07-09T16:24:08.646Z,41.09
2018-07-09T16:26:38.006Z,41.93
2018-07-09T16:29:07.419Z,40.35
2018-07-09T16:31:36.746Z,40.71
2018-07-09T16:34:06.113Z,41.43
2018-07-09T16:36:35.511Z,42.46
2018-07-09T16:39:05.981Z,41.19
2018-07-09T16:41:35.734Z,42.03
2018-07-09T16:44:05.168Z,42.51
2018-07-09T16:46:34.513Z,42.52
2018-07-09T16:49:04.071Z,43.14
2018-07-09T16:51:33.533Z,44.05
2018-07-09T16:54:03.572Z,43.46
2018-07-09T16:56:33.067Z,43.78
2018-07-09T16:59:02.480Z,42.01
2018-07-09T17:01:31.970Z,42.51
2018-07-09T17:04:01.369Z,42.07
2018-07-09T17:06:30.847Z,42.49
2018-07-09T17:09:00.340Z,42.15
2018-07-09T17:11:29.797Z,42.89
2018-07-09T17:13:59.297Z,44.82
2018-07-09T17:16:28.821Z,44.66
2018-07-09T17:18:58.276Z,46.17
2018-07-09T17:21:27.757Z,45.46
2018-07-09T17:23:57.172Z,48.36
2018-07-09T17:26:26.646Z,49.38
2018-07-09T17:28:56.011Z,52.73
2018-07-09T17:31:25.395Z,55.37
2018-07-09T17:33:54.786Z,56.21
2018-07-09T17:36:24.176Z,54.98
2018-07-09T17:38:53.748Z,57.86
2018-07-09T17:41:23.066Z,59.34
2018-07-09T17:43:52.523Z,60.60
2018-07-09T17:46:21.861Z,61.05
2018-07-09T17:48:51.225Z,60.17
2018-07-09T17:51:20.549Z,61.03
2018-07-09T17:53:49.981Z,62.45
2018-07-09T17:56:19.310Z,61.52
2018-07-09T17:58:48.757Z,61.72
2018-07-09T18:01:18.475Z,63.40
2018-07-09T18:03:48.331Z,63.33
2018-07-09T18:06:17.679Z,60.77
2018-07-09T18:08:47.072Z,60.77
2018-07-09T18:11:16.437Z,61.66
2018-07-09T18:13:45.798Z,60.30
2018-07-09T18:16:15.293Z,63.04
2018-07-09T18:18:44.771Z,63.48
2018-07-09T18:21:14.198Z,65.64
2018-07-09T18:23:43.608Z,65.00
2018-07-09T18:26:13.047Z,65.52
2018-07-09T18:28:42.457Z,64.61
2018-07-09T18:31:12.194Z,64.08
2018-07-09T18:33:41.547Z,65.55
2018-07-09T18:36:11.040Z,65.88
2018-07-09T18:38:40.763Z,64.60
2018-07-09T18:41:10.164Z,63.62
2018-07-09T18:43:39.689Z,63.93
2018-07-09T18:46:09.142Z,65.99
2018-07-09T18:48:38.523Z,65.80
2018-07-09T18:51:08.014Z,62.78
2018-07-09T18:53:37.390Z,63.99
2018-07-09T18:56:06.892Z,65.69
2018-07-09T18:58:36.360Z,65.09
2018-07-09T19:01:05.794Z,62.81
2018-07-09T19:03:35.157Z,64.25
2018-07-09T19:07:11.861Z,62.54
2018-07-09T19:09:41.337Z,62.35
2018-07-09T19:12:10.836Z,64.83
2018-07-09T19:14:44.231Z,65.07
2018-07-09T19:18:28.820Z,65.32
2018-07-09T19:21:36.495Z,63.74
2018-07-09T19:24:06.070Z,61.96
2018-07-09T19:26:34.444Z,64.14
2018-07-09T19:29:03.284Z,61.08
2018-07-09T19:31:31.621Z,61.89
2018-07-09T19:34:00.017Z,63.52
2018-07-09T19:36:28.396Z,64.50
2018-07-09T19:38:56.614Z,65.12
2018-07-09T19:41:24.889Z,67.44
2018-07-09T19:43:53.252Z,65.92
2018-07-09T19:46:21.585Z,64.46
2018-07-09T19:48:49.777Z,66.83
2018-07-09T19:51:18.013Z,69.41
2018-07-09T19:53:46.242Z,70.80
2018-07-09T19:56:14.502Z,69.45
2018-07-09T19:58:42.880Z,68.53
2018-07-09T20:01:11.141Z,66.43
2018-07-09T20:03:39.399Z,68.61
2018-07-09T20:06:07.611Z,68.43
2018-07-09T20:08:41.035Z,66.93
2018-07-09T20:11:14.377Z,66.72
2018-07-09T20:14:13.663Z,70.00
2018-07-09T20:16:47.163Z,67.76
2018-07-09T20:19:15.432Z,69.29
2018-07-09T20:21:43.654Z,67.72
2018-07-09T20:24:11.878Z,67.94
2018-07-09T20:26:40.069Z,69.56
2018-07-09T20:29:08.333Z,67.34
2018-07-09T20:31:36.584Z,69.30
2018-07-09T20:34:04.813Z,68.34
2018-07-09T20:36:33.140Z,66.70
2018-07-09T20:39:01.405Z,67.73
2018-07-09T20:41:29.689Z,67.54
2018-07-09T20:43:57.922Z,67.43
2018-07-09T20:46:26.148Z,69.39
2018-07-09T20:48:54.475Z,70.04
2018-07-09T20:51:22.697Z,69.45
2018-07-09T20:53:51.016Z,68.30
2018-07-09T20:56:19.387Z,70.04
2018-07-09T20:58:47.657Z,70.78
2018-07-09T21:01:15.929Z,68.38
2018-07-09T21:03:44.123Z,69.16
2018-07-09T21:06:12.306Z,68.67
2018-07-09T21:08:40.529Z,69.73
2018-07-09T21:11:08.720Z,68.27
2018-07-09T21:13:36.966Z,68.18
2018-07-09T21:16:05.545Z,68.90
2018-07-09T21:18:33.532Z,70.66
2018-07-09T21:21:01.806Z,69.72
2018-07-09T21:23:30.022Z,70.00
2018-07-09T21:25:58.213Z,68.48
2018-07-09T21:28:26.463Z,70.92
2018-07-09T21:30:54.708Z,70.50
2018-07-09T21:33:22.885Z,72.68
2018-07-09T21:35:51.078Z,70.83
2018-07-09T21:38:19.273Z,68.35
2018-07-09T21:40:47.484Z,69.71
2018-07-09T21:43:15.782Z,70.50
2018-07-09T21:45:43.957Z,69.64
2018-07-09T21:48:12.138Z,69.21
2018-07-09T21:50:40.374Z,67.58
2018-07-09T21:53:08.616Z,67.36
2018-07-09T21:55:36.831Z,67.75
2018-07-09T21:58:05.050Z,66.81
2018-07-09T22:00:33.322Z,65.29
2018-07-09T22:03:01.550Z,67.01
2018-07-09T22:05:29.724Z,66.84
2018-07-09T22:07:57.980Z,69.86
2018-07-09T22:10:26.170Z,69.11
2018-07-09T22:12:54.406Z,68.71
2018-07-09T22:15:22.577Z,68.61
2018-07-09T22:17:52.742Z,66.09
2018-07-09T22:20:20.976Z,67.32
2018-07-09T22:22:49.148Z,68.11
2018-07-09T22:25:17.369Z,67.32
2018-07-09T22:27:45.542Z,69.07
2018-07-09T22:30:13.797Z,69.23
2018-07-09T22:32:43.220Z,70.15
2018-07-09T22:35:13.388Z,70.37
2018-07-09T22:37:42.680Z,71.23
2018-07-09T22:40:12.044Z,69.31
2018-07-09T22:42:41.372Z,70.00
2018-07-09T22:45:10.716Z,69.59
2018-07-09T22:47:40.315Z,69.59
2018-07-09T22:50:09.722Z,68.54
2018-07-09T22:52:39.044Z,68.22
2018-07-09T22:55:19.377Z,68.99
2018-07-09T22:57:48.726Z,67.16
2018-07-09T23:00:19.244Z,68.05
2018-07-09T23:02:57.605Z,69.80
2018-07-09T23:05:26.984Z,71.03
2018-07-09T23:07:56.296Z,71.33
2018-07-09T23:12:40.680Z,70.88
2018-07-09T23:15:30.518Z,70.49
2018-07-09T23:18:11.304Z,71.75
2018-07-09T23:22:50.621Z,71.08
2018-07-09T23:25:20.018Z,71.34
2018-07-09T23:27:48.248Z,71.26
2018-07-09T23:30:16.468Z,72.52
2018-07-09T23:32:44.701Z,72.77
2018-07-09T23:35:12.885Z,70.81
2018-07-09T23:37:41.078Z,72.54
2018-07-09T23:40:09.303Z,69.52
2018-07-09T23:42:37.485Z,71.10
2018-07-09T23:45:05.784Z,70.43
2018-07-09T23:47:33.953Z,72.34
2018-07-09T23:50:02.238Z,69.63
2018-07-09T23:52:30.425Z,70.46
2018-07-09T23:54:58.601Z,71.38
2018-07-09T23:59:40.997Z,70.94
